createdAt,value
2018-06-10T23:02:46.047Z,21.24
2018-06-10T23:05:16.771Z,21.26
2018-06-10T23:07:48.279Z,21.29
2018-06-10T23:08:55.093Z,21.30
2018-06-10T23:10:00.226Z,21.32
2018-06-10T23:11:06.905Z,21.33
2018-06-10T23:12:14.084Z,21.34
2018-06-10T23:13:19.164Z,21.34
2018-06-10T23:19:57.064Z,24.46
2018-06-10T23:21:02.981Z,24.31
2018-06-10T23:22:10.629Z,24.56
2018-06-10T23:23:15.770Z,24.38
2018-06-10T23:24:21.085Z,24.42
2018-06-10T23:25:26.267Z,24.46
2018-06-10T23:26:35.760Z,24.86
2018-06-10T23:27:42.880Z,24.45
2018-06-10T23:28:48.263Z,24.69
2018-06-10T23:29:55.670Z,25.40
2018-06-10T23:31:00.837Z,26.25
2018-06-10T23:32:07.688Z,26.83
2018-06-10T23:33:15.440Z,27.34
2018-06-10T23:34:20.379Z,27.65
2018-06-10T23:35:26.452Z,27.94
2018-06-10T23:36:33.369Z,27.96
2018-06-10T23:37:43.316Z,27.80
2018-06-10T23:38:48.699Z,27.70
2018-06-10T23:39:53.900Z,27.64
2018-06-10T23:40:59.697Z,27.60
2018-06-10T23:42:06.170Z,27.54
2018-06-10T23:43:13.501Z,27.49
2018-06-10T23:47:03.226Z,25.05
2018-06-10T23:48:10.303Z,24.40
2018-06-10T23:49:17.221Z,23.87
2018-06-10T23:50:23.062Z,23.35
2018-06-10T23:51:28.438Z,22.43
2018-06-10T23:52:33.835Z,22.17
2018-06-10T23:53:40.369Z,21.71
2018-06-10T23:54:45.477Z,21.47
2018-06-10T23:55:51.463Z,21.19
2018-06-10T23:56:58.740Z,20.93
2018-06-10T23:58:04.721Z,20.61
2018-06-10T23:59:17.575Z,20.34
